sensor_id;sensor_type;location;lat;lon;timestamp;temperature;humidity
33011;DHT22;19370;48.562;9.196;2024-02-15T01:33:47;9.50;99.90
33011;DHT22;19370;48.562;9.196;2024-02-15T01:36:17;9.50;99.90
33011;DHT22;19370;48.562;9.196;2024-02-15T01:38:47;9.40;99.90
33011;DHT22;19370;48.562;9.196;2024-02-15T01:41:18;9.40;99.90
33011;DHT22;19370;48.562;9.196;2024-02-15T01:43:44;9.40;99.90
33011;DHT22;19370;48.562;9.196;2024-02-15T01:46:28;9.40;99.90
33011;DHT22;19370;48.562;9.196;2024-02-15T01:48:57;9.40;99.90
33011;DHT22;19370;48.562;9.196;2024-02-15T01:51:52;9.40;99.90
33011;DHT22;19370;48.562;9.196;2024-02-15T01:54:53;9.30;99.90
33011;DHT22;19370;48.562;9.196;2024-02-15T01:57:27;9.30;99.90
33011;DHT22;19370;48.562;9.196;2024-02-15T01:59:53;9.30;99.90
33011;DHT22;19370;48.562;9.196;2024-02-15T02:02:31;9.30;99.90
33011;DHT22;19370;48.562;9.196;2024-02-15T02:04:57;9.30;99.90
33011;DHT22;19370;48.562;9.196;2024-02-15T02:07:23;9.30;99.90
33011;DHT22;19370;48.562;9.196;2024-02-15T02:10:15;9.30;99.90
33011;DHT22;19370;48.562;9.196;2024-02-15T02:12:46;9.20;99.90
33011;DHT22;19370;48.562;9.196;2024-02-15T02:15:11;9.10;99.90
33011;DHT22;19370;48.562;9.196;2024-02-15T02:17:57;9.00;99.90
33011;DHT22;19370;48.562;9.196;2024-02-15T02:20:25;9.00;99.90
33011;DHT22;19370;48.562;9.196;2024-02-15T02:22:54;8.90;99.90
33011;DHT22;19370;48.562;9.196;2024-02-15T02:25:28;8.90;99.90
33011;DHT22;19370;48.562;9.196;2024-02-15T02:27:53;8.80;99.90
33011;DHT22;19370;48.562;9.196;2024-02-15T02:30:23;8.90;99.90
33011;DHT22;19370;48.562;9.196;2024-02-15T02:32:48;8.90;99.90
33011;DHT22;19370;48.562;9.196;2024-02-15T02:35:14;8.90;99.90
33011;DHT22;19370;48.562;9.196;2024-02-15T02:37:42;8.90;99.90
33011;DHT22;19370;48.562;9.196;2024-02-15T02:40:12;8.90;99.90
33011;DHT22;19370;48.562;9.196;2024-02-15T02:43:02;8.90;99.90
33011;DHT22;19370;48.562;9.196;2024-02-15T02:45:28;8.90;99.90
33011;DHT22;19370;48.562;9.196;2024-02-15T02:47:54;8.90;99.90
33011;DHT22;19370;48.562;9.196;2024-02-15T02:50:20;8.90;99.90
33011;DHT22;19370;48.562;9.196;2024-02-15T02:52:46;8.90;99.90
33011;DHT22;19370;48.562;9.196;2024-02-15T02:55:17;8.90;99.90
33011;DHT22;19370;48.562;9.196;2024-02-15T02:57:43;8.90;99.90
33011;DHT22;19370;48.562;9.196;2024-02-15T03:00:13;8.90;99.90
33011;DHT22;19370;48.562;9.196;2024-02-15T03:02:45;8.90;99.90
33011;DHT22;19370;48.562;9.196;2024-02-15T03:05:11;8.90;99.90
33011;DHT22;19370;48.562;9.196;2024-02-15T03:07:37;8.90;99.90
33011;DHT22;19370;48.562;9.196;2024-02-15T03:10:04;8.90;99.90
33011;DHT22;19370;48.562;9.196;2024-02-15T03:12:30;8.90;99.90
33011;DHT22;19370;48.562;9.196;2024-02-15T03:14:59;8.90;99.90
33011;DHT22;19370;48.562;9.196;2024-02-15T03:17:24;8.90;99.90
33011;DHT22;19370;48.562;9.196;2024-02-15T03:19:51;8.80;99.90
33011;DHT22;19370;48.562;9.196;2024-02-15T03:22:22;8.70;99.90
33011;DHT22;19370;48.562;9.196;2024-02-15T03:24:50;8.70;99.90
33011;DHT22;19370;48.562;9.196;2024-02-15T03:27:18;8.60;99.90
33011;DHT22;19370;48.562;9.196;2024-02-15T03:29:48;8.60;99.90
33011;DHT22;19370;48.562;9.196;2024-02-15T03:32:23;8.50;99.90
33011;DHT22;19370;48.562;9.196;2024-02-15T03:34:49;8.40;99.90
33011;DHT22;19370;48.562;9.196;2024-02-15T03:37:14;8.40;99.90
33011;DHT22;19370;48.562;9.196;2024-02-15T03:39:40;8.20;99.90
33011;DHT22;19370;48.562;9.196;2024-02-15T03:42:05;8.30;99.90
33011;DHT22;19370;48.562;9.196;2024-02-15T03:44:34;8.20;99.90
33011;DHT22;19370;48.562;9.196;2024-02-15T03:47:00;8.20;99.90
33011;DHT22;19370;48.562;9.196;2024-02-15T03:49:25;8.20;99.90
33011;DHT22;19370;48.562;9.196;2024-02-15T03:52:08;8.10;99.90
33011;DHT22;19370;48.562;9.196;2024-02-15T03:54:36;8.20;99.90
33011;DHT22;19370;48.562;9.196;2024-02-15T03:57:10;8.10;99.90
33011;DHT22;19370;48.562;9.196;2024-02-15T03:59:37;8.10;99.90
33011;DHT22;19370;48.562;9.196;2024-02-15T04:02:06;8.10;99.90
33011;DHT22;19370;48.562;9.196;2024-02-15T04:04:37;8.10;99.90
33011;DHT22;19370;48.562;9.196;2024-02-15T04:07:07;8.20;99.90
33011;DHT22;19370;48.562;9.196;2024-02-15T04:09:33;8.20;99.90
33011;DHT22;19370;48.562;9.196;2024-02-15T04:12:09;8.10;99.90
33011;DHT22;19370;48.562;9.196;2024-02-15T04:14:34;8.20;99.90
33011;DHT22;19370;48.562;9.196;2024-02-15T04:17:06;8.20;99.90
33011;DHT22;19370;48.562;9.196;2024-02-15T04:19:32;8.30;99.90
33011;DHT22;19370;48.562;9.196;2024-02-15T04:21:57;8.20;99.90
33011;DHT22;19370;48.562;9.196;2024-02-15T04:24:24;8.20;99.90
33011;DHT22;19370;48.562;9.196;2024-02-15T04:26:51;8.30;99.90
33011;DHT22;19370;48.562;9.196;2024-02-15T04:29:17;8.20;99.90
33011;DHT22;19370;48.562;9.196;2024-02-15T04:31:45;8.30;99.90
33011;DHT22;19370;48.562;9.196;2024-02-15T04:34:15;8.30;99.90
33011;DHT22;19370;48.562;9.196;2024-02-15T04:36:41;8.30;99.90
33011;DHT22;19370;48.562;9.196;2024-02-15T04:39:08;8.30;99.90
33011;DHT22;19370;48.562;9.196;2024-02-15T04:41:37;8.30;99.90
33011;DHT22;19370;48.562;9.196;2024-02-15T04:44:13;8.30;99.90
33011;DHT22;19370;48.562;9.196;2024-02-15T04:46:38;8.30;99.90
33011;DHT22;19370;48.562;9.196;2024-02-15T04:49:04;8.30;99.90
33011;DHT22;19370;48.562;9.196;2024-02-15T04:51:31;8.20;99.90
33011;DHT22;19370;48.562;9.196;2024-02-15T04:53:57;8.20;99.90
33011;DHT22;19370;48.562;9.196;2024-02-15T04:56:23;8.10;99.90
33011;DHT22;19370;48.562;9.196;2024-02-15T04:58:52;8.10;99.90
33011;DHT22;19370;48.562;9.196;2024-02-15T05:01:18;8.10;99.90
33011;DHT22;19370;48.562;9.196;2024-02-15T05:03:44;8.10;99.90
33011;DHT22;19370;48.562;9.196;2024-02-15T05:06:10;7.90;99.90
33011;DHT22;19370;48.562;9.196;2024-02-15T05:08:38;8.10;99.90
33011;DHT22;19370;48.562;9.196;2024-02-15T05:11:19;8.00;99.90
33011;DHT22;19370;48.562;9.196;2024-02-15T05:13:45;8.10;99.90
33011;DHT22;19370;48.562;9.196;2024-02-15T05:16:11;8.00;99.90
33011;DHT22;19370;48.562;9.196;2024-02-15T05:18:37;7.90;99.90
33011;DHT22;19370;48.562;9.196;2024-02-15T05:21:05;7.90;99.90
33011;DHT22;19370;48.562;9.196;2024-02-15T05:23:35;7.90;99.90
33011;DHT22;19370;48.562;9.196;2024-02-15T05:26:01;7.90;99.90
33011;DHT22;19370;48.562;9.196;2024-02-15T05:28:28;7.90;99.90
33011;DHT22;19370;48.562;9.196;2024-02-15T05:31:10;7.90;99.90
33011;DHT22;19370;48.562;9.196;2024-02-15T05:33:38;8.00;99.90
33011;DHT22;19370;48.562;9.196;2024-02-15T05:36:12;8.10;99.90
33011;DHT22;19370;48.562;9.196;2024-02-15T05:38:38;8.10;99.90
33011;DHT22;19370;48.562;9.196;2024-02-15T05:41:04;8.10;99.90
33011;DHT22;19370;48.562;9.196;2024-02-15T05:43:31;8.20;99.90
33011;DHT22;19370;48.562;9.196;2024-02-15T05:45:57;8.20;99.90
33011;DHT22;19370;48.562;9.196;2024-02-15T05:48:26;8.20;99.90
33011;DHT22;19370;48.562;9.196;2024-02-15T05:50:57;8.10;99.90
33011;DHT22;19370;48.562;9.196;2024-02-15T05:53:24;8.00;99.90
33011;DHT22;19370;48.562;9.196;2024-02-15T05:55:50;8.00;99.90
33011;DHT22;19370;48.562;9.196;2024-02-15T05:58:16;8.10;99.90
33011;DHT22;19370;48.562;9.196;2024-02-15T06:00:45;8.00;99.90
33011;DHT22;19370;48.562;9.196;2024-02-15T06:03:11;8.00;99.90
33011;DHT22;19370;48.562;9.196;2024-02-15T06:05:38;8.00;99.90
33011;DHT22;19370;48.562;9.196;2024-02-15T06:08:04;8.00;99.90
33011;DHT22;19370;48.562;9.196;2024-02-15T06:10:30;8.00;99.90
33011;DHT22;19370;48.562;9.196;2024-02-15T06:12:57;8.00;99.90
33011;DHT22;19370;48.562;9.196;2024-02-15T06:15:24;8.10;99.90
33011;DHT22;19370;48.562;9.196;2024-02-15T06:17:53;7.90;99.90
33011;DHT22;19370;48.562;9.196;2024-02-15T06:20:18;7.90;99.90
33011;DHT22;19370;48.562;9.196;2024-02-15T06:22:45;7.90;99.90
33011;DHT22;19370;48.562;9.196;2024-02-15T06:25:12;7.80;99.90
33011;DHT22;19370;48.562;9.196;2024-02-15T06:27:45;8.00;99.90
33011;DHT22;19370;48.562;9.196;2024-02-15T06:30:12;7.90;99.90
33011;DHT22;19370;48.562;9.196;2024-02-15T06:32:57;7.80;99.90
33011;DHT22;19370;48.562;9.196;2024-02-15T06:35:42;7.80;99.90
33011;DHT22;19370;48.562;9.196;2024-02-15T06:38:38;7.80;99.90
33011;DHT22;19370;48.562;9.196;2024-02-15T06:45:20;7.80;99.90
33011;DHT22;19370;48.562;9.196;2024-02-15T08:58:27;11.20;99.90
33011;DHT22;19370;48.562;9.196;2024-02-15T11:02:40;19.10;99.90
33011;DHT22;19370;48.562;9.196;2024-02-15T11:53:31;21.00;84.80
33011;DHT22;19370;48.562;9.196;2024-02-15T11:56:18;21.10;83.00
33011;DHT22;19370;48.562;9.196;2024-02-15T12:43:38;20.90;85.70
33011;DHT22;19370;48.562;9.196;2024-02-15T12:47:21;20.70;86.80
33011;DHT22;19370;48.562;9.196;2024-02-15T12:50:29;20.40;84.70
33011;DHT22;19370;48.562;9.196;2024-02-15T12:52:56;20.20;89.30
33011;DHT22;19370;48.562;9.196;2024-02-15T12:55:32;20.00;88.50
33011;DHT22;19370;48.562;9.196;2024-02-15T12:58:03;20.10;88.20
33011;DHT22;19370;48.562;9.196;2024-02-15T13:00:31;20.10;86.50
33011;DHT22;19370;48.562;9.196;2024-02-15T13:03:02;19.90;88.80
33011;DHT22;19370;48.562;9.196;2024-02-15T13:05:29;19.80;89.10
33011;DHT22;19370;48.562;9.196;2024-02-15T13:07:56;19.40;89.60
33011;DHT22;19370;48.562;9.196;2024-02-15T13:10:24;19.20;90.70
33011;DHT22;19370;48.562;9.196;2024-02-15T13:12:52;19.20;90.50
33011;DHT22;19370;48.562;9.196;2024-02-15T13:15:18;19.10;90.20
33011;DHT22;19370;48.562;9.196;2024-02-15T13:17:50;19.40;89.90
33011;DHT22;19370;48.562;9.196;2024-02-15T13:20:21;19.10;89.50
33011;DHT22;19370;48.562;9.196;2024-02-15T13:23:05;18.90;89.20
33011;DHT22;19370;48.562;9.196;2024-02-15T13:25:35;18.90;90.70
33011;DHT22;19370;48.562;9.196;2024-02-15T13:28:09;18.90;91.00
33011;DHT22;19370;48.562;9.196;2024-02-15T13:30:36;18.90;91.90
33011;DHT22;19370;48.562;9.196;2024-02-15T13:33:06;18.90;91.00
33011;DHT22;19370;48.562;9.196;2024-02-15T13:35:33;18.80;91.30
33011;DHT22;19370;48.562;9.196;2024-02-15T13:38:11;18.70;91.90
33011;DHT22;19370;48.562;9.196;2024-02-15T13:40:40;18.50;92.70
33011;DHT22;19370;48.562;9.196;2024-02-15T13:43:14;18.50;92.60
33011;DHT22;19370;48.562;9.196;2024-02-15T13:45:42;18.30;92.40
33011;DHT22;19370;48.562;9.196;2024-02-15T13:48:12;18.20;92.60
33011;DHT22;19370;48.562;9.196;2024-02-15T13:50:41;18.10;93.40
33011;DHT22;19370;48.562;9.196;2024-02-15T13:53:10;17.90;93.80
33011;DHT22;19370;48.562;9.196;2024-02-15T13:55:37;17.90;94.00
33011;DHT22;19370;48.562;9.196;2024-02-15T13:58:05;17.70;94.00
33011;DHT22;19370;48.562;9.196;2024-02-15T14:00:33;17.60;94.60
33011;DHT22;19370;48.562;9.196;2024-02-15T14:03:00;17.50;93.90
33011;DHT22;19370;48.562;9.196;2024-02-15T14:05:27;17.40;94.30
33011;DHT22;19370;48.562;9.196;2024-02-15T14:08:04;17.50;94.30
33011;DHT22;19370;48.562;9.196;2024-02-15T14:10:41;17.40;94.70
33011;DHT22;19370;48.562;9.196;2024-02-15T14:13:08;17.40;95.30
33011;DHT22;19370;48.562;9.196;2024-02-15T14:15:37;17.40;95.80
33011;DHT22;19370;48.562;9.196;2024-02-15T14:18:10;17.40;95.00
33011;DHT22;19370;48.562;9.196;2024-02-15T14:20:39;17.40;95.40
33011;DHT22;19370;48.562;9.196;2024-02-15T14:23:07;17.40;95.40
33011;DHT22;19370;48.562;9.196;2024-02-15T14:25:43;17.30;96.10
33011;DHT22;19370;48.562;9.196;2024-02-15T14:28:09;17.30;96.00
33011;DHT22;19370;48.562;9.196;2024-02-15T14:30:46;17.20;96.20
33011;DHT22;19370;48.562;9.196;2024-02-15T14:36:52;17.20;96.10
33011;DHT22;19370;48.562;9.196;2024-02-15T14:39:32;17.20;95.90
33011;DHT22;19370;48.562;9.196;2024-02-15T14:41:59;17.30;96.10
33011;DHT22;19370;48.562;9.196;2024-02-15T14:44:29;17.50;96.60
33011;DHT22;19370;48.562;9.196;2024-02-15T14:46:57;17.70;95.40
33011;DHT22;19370;48.562;9.196;2024-02-15T14:49:23;17.80;95.60
33011;DHT22;19370;48.562;9.196;2024-02-15T14:51:49;18.00;95.10
33011;DHT22;19370;48.562;9.196;2024-02-15T14:54:18;18.00;95.10
33011;DHT22;19370;48.562;9.196;2024-02-15T14:56:49;18.20;94.90
33011;DHT22;19370;48.562;9.196;2024-02-15T14:59:16;18.30;94.10
33011;DHT22;19370;48.562;9.196;2024-02-15T15:01:41;18.30;94.30
33011;DHT22;19370;48.562;9.196;2024-02-15T15:04:07;18.30;94.20
33011;DHT22;19370;48.562;9.196;2024-02-15T15:06:45;18.30;94.00
33011;DHT22;19370;48.562;9.196;2024-02-15T15:09:30;18.30;94.60
33011;DHT22;19370;48.562;9.196;2024-02-15T15:12:22;18.20;95.20
33011;DHT22;19370;48.562;9.196;2024-02-15T15:15:09;18.10;94.50
33011;DHT22;19370;48.562;9.196;2024-02-15T15:17:39;17.90;95.20
33011;DHT22;19370;48.562;9.196;2024-02-15T15:20:08;17.90;94.80
33011;DHT22;19370;48.562;9.196;2024-02-15T15:22:45;17.90;95.00
33011;DHT22;19370;48.562;9.196;2024-02-15T15:25:17;17.60;95.40
33011;DHT22;19370;48.562;9.196;2024-02-15T15:27:43;17.50;95.90
33011;DHT22;19370;48.562;9.196;2024-02-15T15:30:09;17.40;95.70
33011;DHT22;19370;48.562;9.196;2024-02-15T15:32:35;17.30;96.10
33011;DHT22;19370;48.562;9.196;2024-02-15T15:35:01;17.20;96.00
33011;DHT22;19370;48.562;9.196;2024-02-15T15:37:27;17.00;96.30
33011;DHT22;19370;48.562;9.196;2024-02-15T15:39:52;16.80;96.70
33011;DHT22;19370;48.562;9.196;2024-02-15T15:42:24;16.70;97.30
33011;DHT22;19370;48.562;9.196;2024-02-15T15:44:50;16.60;97.90
33011;DHT22;19370;48.562;9.196;2024-02-15T15:47:16;16.50;98.00
33011;DHT22;19370;48.562;9.196;2024-02-15T15:49:46;16.30;98.30
33011;DHT22;19370;48.562;9.196;2024-02-15T15:52:13;16.20;98.50
33011;DHT22;19370;48.562;9.196;2024-02-15T15:54:47;16.00;98.80
33011;DHT22;19370;48.562;9.196;2024-02-15T15:57:15;15.90;99.30
33011;DHT22;19370;48.562;9.196;2024-02-15T15:59:44;15.70;99.50
33011;DHT22;19370;48.562;9.196;2024-02-15T16:02:39;15.60;99.90
33011;DHT22;19370;48.562;9.196;2024-02-15T16:05:15;15.50;99.90
33011;DHT22;19370;48.562;9.196;2024-02-15T16:07:44;15.40;99.90
33011;DHT22;19370;48.562;9.196;2024-02-15T16:10:11;15.30;99.90
33011;DHT22;19370;48.562;9.196;2024-02-15T16:12:41;15.20;99.90
33011;DHT22;19370;48.562;9.196;2024-02-15T16:15:11;15.10;99.90
33011;DHT22;19370;48.562;9.196;2024-02-15T16:17:45;15.00;99.90
33011;DHT22;19370;48.562;9.196;2024-02-15T16:20:13;14.90;99.90
33011;DHT22;19370;48.562;9.196;2024-02-15T16:22:43;14.80;99.90
33011;DHT22;19370;48.562;9.196;2024-02-15T16:25:22;14.60;99.90
33011;DHT22;19370;48.562;9.196;2024-02-15T16:27:48;14.50;99.90
33011;DHT22;19370;48.562;9.196;2024-02-15T16:30:17;14.50;99.90
33011;DHT22;19370;48.562;9.196;2024-02-15T16:32:43;14.30;99.90
33011;DHT22;19370;48.562;9.196;2024-02-15T18:21:49;12.90;99.90
33011;DHT22;19370;48.562;9.196;2024-02-15T18:24:16;12.90;99.90
33011;DHT22;19370;48.562;9.196;2024-02-15T18:26:42;12.90;99.90
33011;DHT22;19370;48.562;9.196;2024-02-15T18:29:07;12.80;99.90
33011;DHT22;19370;48.562;9.196;2024-02-15T18:31:34;12.80;99.90
33011;DHT22;19370;48.562;9.196;2024-02-15T18:34:01;12.80;99.90
33011;DHT22;19370;48.562;9.196;2024-02-15T18:36:30;12.80;99.90
33011;DHT22;19370;48.562;9.196;2024-02-15T18:39:07;12.80;99.90
33011;DHT22;19370;48.562;9.196;2024-02-15T18:41:35;12.80;99.90
33011;DHT22;19370;48.562;9.196;2024-02-15T18:44:00;12.80;99.90
33011;DHT22;19370;48.562;9.196;2024-02-15T18:46:27;12.80;99.90
33011;DHT22;19370;48.562;9.196;2024-02-15T18:48:56;12.70;99.90
33011;DHT22;19370;48.562;9.196;2024-02-15T18:51:23;12.70;99.90
33011;DHT22;19370;48.562;9.196;2024-02-15T18:53:55;12.70;99.90
33011;DHT22;19370;48.562;9.196;2024-02-15T18:56:21;12.60;99.90
33011;DHT22;19370;48.562;9.196;2024-02-15T18:58:46;12.60;99.90
33011;DHT22;19370;48.562;9.196;2024-02-15T19:01:14;12.60;99.90
33011;DHT22;19370;48.562;9.196;2024-02-15T19:07:07;12.50;99.90
33011;DHT22;19370;48.562;9.196;2024-02-15T19:09:43;12.50;99.90
33011;DHT22;19370;48.562;9.196;2024-02-15T19:12:17;12.50;99.90
33011;DHT22;19370;48.562;9.196;2024-02-15T19:14:42;12.50;99.90
33011;DHT22;19370;48.562;9.196;2024-02-15T19:17:19;12.50;99.90
33011;DHT22;19370;48.562;9.196;2024-02-15T19:19:46;12.40;99.90
33011;DHT22;19370;48.562;9.196;2024-02-15T19:22:17;12.30;99.90
33011;DHT22;19370;48.562;9.196;2024-02-15T19:24:49;12.30;99.90
33011;DHT22;19370;48.562;9.196;2024-02-15T19:27:16;12.30;99.90
33011;DHT22;19370;48.562;9.196;2024-02-15T19:29:47;12.30;99.90
33011;DHT22;19370;48.562;9.196;2024-02-15T19:32:17;12.30;99.90
33011;DHT22;19370;48.562;9.196;2024-02-15T19:34:43;12.20;99.90
33011;DHT22;19370;48.562;9.196;2024-02-15T19:37:08;12.20;99.90
33011;DHT22;19370;48.562;9.196;2024-02-15T19:39:41;12.10;99.90
33011;DHT22;19370;48.562;9.196;2024-02-15T19:42:08;12.10;99.90
33011;DHT22;19370;48.562;9.196;2024-02-15T19:44:41;12.10;99.90
33011;DHT22;19370;48.562;9.196;2024-02-15T19:47:17;12.00;99.90
33011;DHT22;19370;48.562;9.196;2024-02-15T19:50:07;12.00;99.90
33011;DHT22;19370;48.562;9.196;2024-02-15T19:52:38;11.90;99.90
33011;DHT22;19370;48.562;9.196;2024-02-15T19:55:05;11.90;99.90
33011;DHT22;19370;48.562;9.196;2024-02-15T19:57:36;11.80;99.90
33011;DHT22;19370;48.562;9.196;2024-02-15T20:00:03;11.90;99.90
33011;DHT22;19370;48.562;9.196;2024-02-15T20:02:32;11.90;99.90
33011;DHT22;19370;48.562;9.196;2024-02-15T20:04:59;11.80;99.90
33011;DHT22;19370;48.562;9.196;2024-02-15T20:07:41;11.80;99.90
33011;DHT22;19370;48.562;9.196;2024-02-15T20:10:14;11.80;99.90
33011;DHT22;19370;48.562;9.196;2024-02-15T20:12:48;11.80;99.90
33011;DHT22;19370;48.562;9.196;2024-02-15T20:15:14;11.80;99.90
33011;DHT22;19370;48.562;9.196;2024-02-15T20:17:40;11.90;99.90
33011;DHT22;19370;48.562;9.196;2024-02-15T20:20:12;11.80;99.90
33011;DHT22;19370;48.562;9.196;2024-02-15T20:22:41;11.90;99.90
33011;DHT22;19370;48.562;9.196;2024-02-15T20:25:09;12.00;99.90
33011;DHT22;19370;48.562;9.196;2024-02-15T20:27:43;11.90;99.90
33011;DHT22;19370;48.562;9.196;2024-02-15T20:30:15;11.90;99.90
33011;DHT22;19370;48.562;9.196;2024-02-15T20:32:49;11.90;99.90
33011;DHT22;19370;48.562;9.196;2024-02-15T20:35:15;11.90;99.90
33011;DHT22;19370;48.562;9.196;2024-02-15T20:37:55;12.00;99.90
33011;DHT22;19370;48.562;9.196;2024-02-15T20:40:24;11.90;99.90
33011;DHT22;19370;48.562;9.196;2024-02-15T20:42:55;11.90;99.90
33011;DHT22;19370;48.562;9.196;2024-02-15T20:45:24;11.90;99.90
33011;DHT22;19370;48.562;9.196;2024-02-15T20:48:00;11.90;99.90
33011;DHT22;19370;48.562;9.196;2024-02-15T20:50:27;11.90;99.90
33011;DHT22;19370;48.562;9.196;2024-02-15T20:52:53;12.00;99.90
33011;DHT22;19370;48.562;9.196;2024-02-15T20:55:19;12.10;99.90
33011;DHT22;19370;48.562;9.196;2024-02-15T20:57:45;12.10;99.90
33011;DHT22;19370;48.562;9.196;2024-02-15T21:00:11;12.10;99.90
33011;DHT22;19370;48.562;9.196;2024-02-15T21:03:05;12.10;99.90
33011;DHT22;19370;48.562;9.196;2024-02-15T21:05:50;12.10;99.90
33011;DHT22;19370;48.562;9.196;2024-02-15T21:08:50;12.10;99.90
33011;DHT22;19370;48.562;9.196;2024-02-15T21:11:21;12.00;99.90
33011;DHT22;19370;48.562;9.196;2024-02-15T21:13:51;12.00;99.90
33011;DHT22;19370;48.562;9.196;2024-02-15T21:16:18;11.90;99.90
33011;DHT22;19370;48.562;9.196;2024-02-15T21:18:47;11.90;99.90
33011;DHT22;19370;48.562;9.196;2024-02-15T21:21:26;11.80;99.90
33011;DHT22;19370;48.562;9.196;2024-02-15T21:23:51;11.80;99.90
33011;DHT22;19370;48.562;9.196;2024-02-15T21:26:20;11.80;99.90
33011;DHT22;19370;48.562;9.196;2024-02-15T21:28:50;11.70;99.90
33011;DHT22;19370;48.562;9.196;2024-02-15T21:31:20;11.70;99.90
33011;DHT22;19370;48.562;9.196;2024-02-15T21:33:50;11.60;99.90
33011;DHT22;19370;48.562;9.196;2024-02-15T21:36:19;11.50;99.90
33011;DHT22;19370;48.562;9.196;2024-02-15T21:38:45;11.50;99.90
33011;DHT22;19370;48.562;9.196;2024-02-15T21:41:11;11.40;99.90
33011;DHT22;19370;48.562;9.196;2024-02-15T21:43:44;11.30;99.90
33011;DHT22;19370;48.562;9.196;2024-02-15T21:46:10;11.30;99.90
33011;DHT22;19370;48.562;9.196;2024-02-15T21:48:36;11.30;99.90
33011;DHT22;19370;48.562;9.196;2024-02-15T21:51:02;11.30;99.90
33011;DHT22;19370;48.562;9.196;2024-02-15T21:53:28;11.20;99.90
33011;DHT22;19370;48.562;9.196;2024-02-15T21:55:54;11.20;99.90
33011;DHT22;19370;48.562;9.196;2024-02-15T21:58:21;11.30;99.90
33011;DHT22;19370;48.562;9.196;2024-02-15T22:00:46;11.30;99.90
33011;DHT22;19370;48.562;9.196;2024-02-15T22:03:19;11.30;99.90
33011;DHT22;19370;48.562;9.196;2024-02-15T22:05:48;11.30;99.90
33011;DHT22;19370;48.562;9.196;2024-02-15T22:08:16;11.20;99.90
33011;DHT22;19370;48.562;9.196;2024-02-15T22:10:46;11.30;99.90
33011;DHT22;19370;48.562;9.196;2024-02-15T22:13:14;11.30;99.90
33011;DHT22;19370;48.562;9.196;2024-02-15T22:15:41;11.30;99.90
33011;DHT22;19370;48.562;9.196;2024-02-15T22:18:09;11.30;99.90
33011;DHT22;19370;48.562;9.196;2024-02-15T22:20:38;11.20;99.90
33011;DHT22;19370;48.562;9.196;2024-02-15T22:23:04;11.30;99.90
33011;DHT22;19370;48.562;9.196;2024-02-15T22:25:32;11.30;99.90
33011;DHT22;19370;48.562;9.196;2024-02-15T22:28:00;11.20;99.90
33011;DHT22;19370;48.562;9.196;2024-02-15T22:30:27;11.20;99.90
33011;DHT22;19370;48.562;9.196;2024-02-15T22:33:08;11.10;99.90
33011;DHT22;19370;48.562;9.196;2024-02-15T22:39:17;10.90;99.90
33011;DHT22;19370;48.562;9.196;2024-02-15T22:42:34;11.00;99.90
33011;DHT22;19370;48.562;9.196;2024-02-15T22:48:44;11.00;99.90
33011;DHT22;19370;48.562;9.196;2024-02-15T22:57:55;11.00;99.90
33011;DHT22;19370;48.562;9.196;2024-02-15T23:00:26;11.00;99.90
33011;DHT22;19370;48.562;9.196;2024-02-15T23:03:36;11.00;99.90
33011;DHT22;19370;48.562;9.196;2024-02-15T23:06:21;11.00;99.90
33011;DHT22;19370;48.562;9.196;2024-02-15T23:09:00;11.00;99.90
33011;DHT22;19370;48.562;9.196;2024-02-15T23:11:35;10.90;99.90
33011;DHT22;19370;48.562;9.196;2024-02-15T23:14:48;10.90;99.90
33011;DHT22;19370;48.562;9.196;2024-02-15T23:17:00;10.90;99.90
33011;DHT22;19370;48.562;9.196;2024-02-15T23:19:36;10.90;99.90
33011;DHT22;19370;48.562;9.196;2024-02-15T23:32:04;10.60;99.90
33011;DHT22;19370;48.562;9.196;2024-02-15T23:34:30;10.60;99.90
33011;DHT22;19370;48.562;9.196;2024-02-15T23:36:55;10.50;99.90
33011;DHT22;19370;48.562;9.196;2024-02-15T23:43:23;10.50;99.90
33011;DHT22;19370;48.562;9.196;2024-02-15T23:46:03;10.50;99.90
33011;DHT22;19370;48.562;9.196;2024-02-15T23:55:22;10.50;99.90
33011;DHT22;19370;48.562;9.196;2024-02-15T23:57:50;10.50;99.90
